Terminal Aerodrome Forecast
Issued by NWS

Home | Current Version | Previous Version | Text Only | Print | Product List | Glossary On
Versions: 1 2 3 4 5 6 7 8 9 10 11 12 13 14 15 16 17 18 19 20 21 22
000
FTUS42 KGSP 262338
TAFGMU
TAF
KGMU 262338Z 2700/2724 21006KT P6SM SCT040 BKN250
     FM270700 21003KT P6SM BKN015
     FM270900 VRB02KT 4SM BR OVC006
     FM271400 18004KT P6SM BKN015
     FM271800 16008KT P6SM BKN035 PROB30 2718/2724 4SM -TSRA
      OVC025CB=

USA.gov is the U.S. government's official web portal to all federal, state and local government web resources and services.